Time;durP1;ratioP1;P1;durP2;ratioP2;P2;SDS_P1;SDS_P2;PMS_P1;PMS_P2;Temp;Humidity;BMP_temperature;BMP_pressure;BME280_temperature;BME280_humidity;BME280_pressure;Samples;Min_cycle;Max_cycle;Signal;HPM_P1;HPM_P2
2020/12/26 00:02:03;;;;;;;1.95;1.85;;;;;;;1.26;100.00;101923.84;4356689;32;20081;-64
2020/12/26 00:04:28;;;;;;;1.80;1.80;;;;;;;1.26;100.00;101929.13;4369123;32;20100;-64
2020/12/26 00:06:54;;;;;;;1.60;1.60;;;;;;;1.17;100.00;101914.00;4380551;32;20358;-64
2020/12/26 00:09:19;;;;;;;1.45;1.45;;;;;;;1.32;100.00;101923.38;4363397;32;20475;-63
2020/12/26 00:11:44;;;;;;;1.60;1.60;;;;;;;1.30;100.00;101922.66;4364757;32;20441;-65
2020/12/26 00:14:10;;;;;;;1.70;1.70;;;;;;;1.30;100.00;101926.13;4363738;32;20085;-64
2020/12/26 00:16:35;;;;;;;1.67;1.67;;;;;;;1.29;100.00;101934.16;4385781;32;20073;-64
2020/12/26 00:19:00;;;;;;;1.70;1.70;;;;;;;1.27;100.00;101928.16;4356236;32;20559;-63
2020/12/26 00:21:26;;;;;;;1.60;1.60;;;;;;;1.29;100.00;101934.16;4359599;32;20088;-64
2020/12/26 00:23:51;;;;;;;1.60;1.60;;;;;;;1.29;100.00;101929.75;4365641;32;20623;-64
2020/12/26 00:26:17;;;;;;;1.42;1.42;;;;;;;1.27;100.00;101925.53;4375861;32;20482;-65
2020/12/26 00:28:42;;;;;;;1.48;1.48;;;;;;;1.30;100.00;101935.84;4355972;32;20073;-63
2020/12/26 00:31:11;;;;;;;1.70;1.70;;;;;;;1.33;100.00;101943.53;4358347;32;20253;-63
2020/12/26 00:33:36;;;;;;;1.50;1.50;;;;;;;1.30;100.00;101938.50;4371767;32;20144;-64
2020/12/26 00:36:02;;;;;;;1.70;1.70;;;;;;;1.06;100.00;101904.31;4359453;32;20138;-64
2020/12/26 00:38:27;;;;;;;1.60;1.60;;;;;;;1.13;100.00;101908.97;4370619;32;20073;-64
2020/12/26 00:40:53;;;;;;;1.50;1.50;;;;;;;1.29;100.00;101939.44;4369501;32;20631;-65
2020/12/26 00:43:18;;;;;;;1.50;1.50;;;;;;;1.33;100.00;101940.91;4368390;32;20120;-64
2020/12/26 00:45:44;;;;;;;1.60;1.60;;;;;;;1.34;100.00;101942.56;4383944;32;20092;-64
2020/12/26 00:48:09;;;;;;;1.58;1.58;;;;;;;1.10;100.00;101898.69;4370079;32;20072;-64
2020/12/26 00:50:34;;;;;;;1.77;1.77;;;;;;;1.34;100.00;101942.56;4380876;32;20658;-64
2020/12/26 00:53:00;;;;;;;1.80;1.80;;;;;;;1.36;100.00;101945.91;4369405;32;20642;-65
2020/12/26 00:55:25;;;;;;;1.40;1.40;;;;;;;1.36;100.00;101950.34;4382928;32;20084;-66
2020/12/26 00:57:51;;;;;;;1.77;1.67;;;;;;;1.35;100.00;101940.78;4366495;32;20166;-65
2020/12/26 01:00:16;;;;;;;1.60;1.60;;;;;;;1.36;100.00;101943.28;4355909;32;20121;-64
2020/12/26 01:02:42;;;;;;;1.45;1.45;;;;;;;1.37;100.00;101937.06;4375140;32;20062;-65
2020/12/26 01:05:07;;;;;;;1.70;1.70;;;;;;;1.01;100.00;101883.56;4355849;32;20082;-65
2020/12/26 01:07:32;;;;;;;1.73;1.73;;;;;;;1.34;100.00;101936.47;4364133;32;20084;-65
2020/12/26 01:09:58;;;;;;;1.60;1.60;;;;;;;1.33;100.00;101935.63;4367846;32;20634;-63
2020/12/26 01:12:23;;;;;;;1.55;1.55;;;;;;;1.10;100.00;101903.09;4376129;32;20089;-63
2020/12/26 01:14:49;;;;;;;1.50;1.50;;;;;;;1.31;100.00;101941.00;4370368;32;20615;-64
2020/12/26 01:17:14;;;;;;;1.80;1.80;;;;;;;1.30;100.00;101941.97;4365766;32;21353;-65
2020/12/26 01:19:39;;;;;;;1.60;1.60;;;;;;;1.31;100.00;101945.41;4382476;32;20327;-64
2020/12/26 01:22:05;;;;;;;1.60;1.60;;;;;;;1.30;100.00;101946.41;4354629;32;20603;-64
2020/12/26 01:24:30;;;;;;;1.50;1.50;;;;;;;1.31;100.00;101948.06;4383746;32;20154;-68
2020/12/26 01:26:56;;;;;;;1.98;1.90;;;;;;;1.31;100.00;101961.25;4366904;32;20251;-65
2020/12/26 01:29:21;;;;;;;1.80;1.80;;;;;;;1.31;100.00;101948.06;4366339;32;20427;-64
2020/12/26 01:31:50;;;;;;;1.50;1.50;;;;;;;1.29;100.00;101955.25;4372191;32;20766;-64
2020/12/26 01:34:16;;;;;;;1.60;1.60;;;;;;;1.23;100.00;101945.19;4355162;32;20591;-64
2020/12/26 01:36:41;;;;;;;1.60;1.60;;;;;;;0.68;100.00;101847.47;4368047;32;20076;-63
2020/12/26 01:39:07;;;;;;;1.60;1.60;;;;;;;1.30;100.00;101959.56;4370827;32;20072;-64
2020/12/26 01:41:32;;;;;;;1.60;1.60;;;;;;;1.23;100.00;101945.19;4364736;32;20085;-63
2020/12/26 01:43:59;;;;;;;1.65;1.65;;;;;;;1.29;100.00;101955.25;4375496;32;20148;-64
2020/12/26 01:46:30;;;;;;;1.50;1.50;;;;;;;1.29;100.00;101955.25;4370343;32;20064;-67
2020/12/26 01:48:55;;;;;;;1.60;1.60;;;;;;;1.28;100.00;101956.22;4357620;32;20178;-64
2020/12/26 01:51:21;;;;;;;1.50;1.50;;;;;;;1.28;100.00;101953.59;4381735;32;20057;-65
2020/12/26 01:53:47;;;;;;;1.52;1.52;;;;;;;0.44;100.00;101823.81;4376254;32;20070;-65
2020/12/26 01:56:13;;;;;;;1.60;1.60;;;;;;;1.26;100.00;101961.59;4352196;32;20694;-65
2020/12/26 01:58:38;;;;;;;1.50;1.50;;;;;;;1.21;100.00;101954.97;4381017;32;20089;-65
2020/12/26 02:01:04;;;;;;;1.60;1.60;;;;;;;1.24;100.00;101960.88;4370058;32;20061;-64
2020/12/26 02:03:29;;;;;;;2.22;2.12;;;;;;;1.25;100.00;101965.19;4374500;32;20088;-65
2020/12/26 02:05:55;;;;;;;1.58;1.58;;;;;;;1.03;100.00;101929.06;4377351;32;20651;-64
2020/12/26 02:08:20;;;;;;;1.80;1.80;;;;;;;1.11;100.00;101958.31;4372330;32;20160;-65
2020/12/26 02:10:46;;;;;;;1.65;1.65;;;;;;;1.13;100.00;101959.03;4362694;32;20065;-65
2020/12/26 02:13:11;;;;;;;1.60;1.60;;;;;;;1.13;100.00;101956.41;4358225;32;20065;-65
2020/12/26 02:15:36;;;;;;;1.60;1.60;;;;;;;1.13;100.00;101955.56;4353388;32;22012;-65
2020/12/26 02:18:02;;;;;;;1.40;1.40;;;;;;;1.09;100.00;101954.97;4384953;32;20140;-65
2020/12/26 02:20:27;;;;;;;1.60;1.60;;;;;;;0.31;100.00;101822.09;4376812;32;20070;-64
2020/12/26 02:22:52;;;;;;;1.50;1.50;;;;;;;1.15;100.00;101958.09;4363146;32;20077;-65
2020/12/26 02:25:18;;;;;;;1.50;1.50;;;;;;;1.11;100.00;101950.41;4367482;32;20109;-65
2020/12/26 02:27:43;;;;;;;1.55;1.55;;;;;;;1.19;100.00;101951.63;4358356;32;20579;-64
2020/12/26 02:30:09;;;;;;;1.70;1.70;;;;;;;1.20;100.00;101951.53;4361572;32;20140;-64
2020/12/26 02:32:34;;;;;;;1.50;1.50;;;;;;;1.21;100.00;101949.72;4384741;32;20070;-66
2020/12/26 02:35:00;;;;;;;1.80;1.80;;;;;;;0.79;100.00;101878.25;4356567;32;20079;-65
2020/12/26 02:37:25;;;;;;;1.60;1.60;;;;;;;1.11;100.00;101937.25;4381416;32;20087;-64
2020/12/26 02:39:51;;;;;;;2.03;1.95;;;;;;;1.19;100.00;101936.69;4367423;32;20077;-64
2020/12/26 02:42:17;;;;;;;1.60;1.60;;;;;;;1.11;100.00;101918.78;4390083;32;20152;-65
2020/12/26 02:44:42;;;;;;;1.48;1.48;;;;;;;1.25;100.00;101940.62;4368329;32;20100;-64
2020/12/26 02:47:08;;;;;;;1.80;1.80;;;;;;;1.27;100.00;101936.91;4377625;32;20386;-65
2020/12/26 02:49:33;;;;;;;1.70;1.70;;;;;;;1.28;100.00;101935.97;4366438;32;20069;-64
2020/12/26 02:51:58;;;;;;;1.67;1.67;;;;;;;1.30;100.00;101941.13;4364262;32;20658;-63
2020/12/26 02:54:24;;;;;;;1.58;1.58;;;;;;;1.32;100.00;101936.56;4366696;32;20960;-64
2020/12/26 02:56:49;;;;;;;1.50;1.50;;;;;;;1.33;100.00;101930.34;4376481;32;20065;-63
2020/12/26 02:59:15;;;;;;;1.55;1.55;;;;;;;1.34;100.00;101926.75;4368707;32;20662;-63
2020/12/26 03:01:40;;;;;;;1.70;1.70;;;;;;;1.36;100.00;101926.62;4376355;32;20624;-63
2020/12/26 03:04:06;;;;;;;1.60;1.60;;;;;;;1.31;100.00;101926.97;4370147;32;20570;-63
2020/12/26 03:06:31;;;;;;;1.60;1.60;;;;;;;1.38;100.00;101915.03;4376947;32;20168;-63
2020/12/26 03:08:57;;;;;;;1.50;1.50;;;;;;;1.39;100.00;101914.03;4373346;32;20135;-64
2020/12/26 03:11:23;;;;;;;1.60;1.60;;;;;;;1.41;100.00;101908.66;4377497;32;20223;-64
2020/12/26 03:13:48;;;;;;;1.60;1.60;;;;;;;1.26;100.00;101879.91;4383436;32;20546;-64
2020/12/26 03:16:14;;;;;;;2.28;2.17;;;;;;;1.41;100.00;101904.22;4356402;32;20089;-64
2020/12/26 03:18:39;;;;;;;1.50;1.50;;;;;;;1.41;100.00;101906.84;4372698;32;20102;-63
2020/12/26 03:21:05;;;;;;;1.50;1.50;;;;;;;1.43;100.00;101910.22;4364133;32;20070;-63
2020/12/26 03:23:30;;;;;;;1.70;1.70;;;;;;;1.39;100.00;101906.12;4376368;32;20095;-64
2020/12/26 03:25:56;;;;;;;1.52;1.52;;;;;;;1.41;100.00;101904.22;4381264;32;20128;-63
2020/12/26 03:28:21;;;;;;;1.60;1.60;;;;;;;1.41;100.00;101906.84;4381160;32;20109;-64
2020/12/26 03:30:46;;;;;;;1.60;1.60;;;;;;;1.44;100.00;101909.25;4355715;32;20077;-64
2020/12/26 03:33:12;;;;;;;2.22;2.12;;;;;;;1.38;100.00;101891.28;4375830;32;20077;-64
2020/12/26 03:35:37;;;;;;;1.50;1.50;;;;;;;1.49;100.00;101907.09;4355742;32;20639;-65
2020/12/26 03:38:03;;;;;;;1.67;1.67;;;;;;;1.49;100.00;101898.37;4378695;32;20077;-65
2020/12/26 03:40:28;;;;;;;1.50;1.50;;;;;;;1.49;100.00;101903.63;4386273;32;20147;-64
2020/12/26 03:42:53;;;;;;;1.50;1.50;;;;;;;1.49;100.00;101901.00;4370423;32;20123;-64
2020/12/26 03:45:21;;;;;;;1.70;1.70;;;;;;;1.51;100.00;101906.97;4371196;32;20087;-64
2020/12/26 03:47:46;;;;;;;1.70;1.70;;;;;;;1.50;100.00;101903.53;4366942;32;20080;-64
2020/12/26 03:50:12;;;;;;;1.80;1.80;;;;;;;1.46;100.00;101899.41;4380518;32;20077;-65
2020/12/26 03:52:37;;;;;;;2.20;2.10;;;;;;;1.45;100.00;101894.25;4367549;32;20159;-64
2020/12/26 03:55:03;;;;;;;1.60;1.60;;;;;;;1.43;100.00;101894.41;4376036;32;20902;-65
2020/12/26 03:57:28;;;;;;;1.50;1.50;;;;;;;1.43;100.00;101898.81;4369212;32;20682;-64
2020/12/26 03:59:54;;;;;;;1.50;1.50;;;;;;;1.44;100.00;101893.44;4366074;32;20977;-64
2020/12/26 04:02:19;;;;;;;1.60;1.60;;;;;;;1.46;100.00;101893.31;4357684;32;20089;-63
2020/12/26 04:04:44;;;;;;;1.50;1.50;;;;;;;1.54;100.00;101903.28;4366254;32;20074;-64
2020/12/26 04:07:10;;;;;;;1.50;1.50;;;;;;;1.33;100.00;101853.03;4380608;32;20416;-64
2020/12/26 04:09:35;;;;;;;1.73;1.70;;;;;;;1.60;100.00;101889.59;4361443;32;20074;-63
2020/12/26 04:12:01;;;;;;;1.60;1.60;;;;;;;1.61;100.00;101891.28;4365128;32;20731;-63
2020/12/26 04:14:26;;;;;;;2.28;2.17;;;;;;;1.63;100.00;101886.72;4378869;32;20070;-63
2020/12/26 04:16:56;;;;;;;1.50;1.50;;;;;;;1.62;100.00;101880.63;4357505;32;20507;-63
2020/12/26 04:19:21;;;;;;;1.77;1.77;;;;;;;1.60;100.00;101879.88;4360981;32;20695;-63
2020/12/26 04:21:47;;;;;;;2.15;2.05;;;;;;;1.61;100.00;101878.09;4383503;32;20087;-62
2020/12/26 04:24:12;;;;;;;2.55;2.45;;;;;;;1.67;100.00;101878.47;4358191;32;20235;-64
2020/12/26 04:26:38;;;;;;;3.35;3.05;;;;;;;1.66;100.00;101876.78;4356896;32;20350;-64
2020/12/26 04:29:05;;;;;;;1.95;1.87;;;;;;;1.65;100.00;101882.16;4380270;32;20361;-62
2020/12/26 04:31:31;;;;;;;1.50;1.50;;;;;;;1.66;100.00;101873.31;4368466;32;20058;-64
2020/12/26 04:33:57;;;;;;;1.50;1.50;;;;;;;1.67;100.00;101867.91;4381954;32;20132;-65
2020/12/26 04:36:22;;;;;;;1.50;1.50;;;;;;;1.67;100.00;101874.97;4367663;32;20097;-63
2020/12/26 04:38:47;;;;;;;1.70;1.70;;;;;;;1.67;100.00;101869.69;4369925;32;20094;-64
2020/12/26 04:41:13;;;;;;;1.70;1.70;;;;;;;1.49;100.00;101822.72;4373678;32;20171;-64
2020/12/26 04:43:39;;;;;;;1.50;1.50;;;;;;;1.03;100.00;101755.19;4364592;32;20326;-64
2020/12/26 04:46:06;;;;;;;1.75;1.75;;;;;;;1.69;100.00;101852.81;4368049;32;20617;-65
2020/12/26 04:48:32;;;;;;;1.60;1.60;;;;;;;1.67;100.00;101854.72;4386292;32;20655;-64
2020/12/26 04:51:02;;;;;;;1.62;1.62;;;;;;;1.70;100.00;101848.34;4369139;32;20065;-64
2020/12/26 04:53:32;;;;;;;1.75;1.75;;;;;;;1.70;100.00;101840.44;4384348;32;20095;-64
2020/12/26 04:55:59;;;;;;;1.50;1.50;;;;;;;1.70;100.00;101843.09;4369718;32;20077;-63
2020/12/26 04:58:24;;;;;;;2.25;2.15;;;;;;;1.69;100.00;101844.03;4382880;32;20262;-63
2020/12/26 05:00:50;;;;;;;1.65;1.65;;;;;;;1.68;100.00;101839.72;4382353;32;20073;-64
2020/12/26 05:03:17;;;;;;;1.87;1.80;;;;;;;1.68;100.00;101837.09;4370108;32;20100;-63
2020/12/26 05:05:43;;;;;;;2.10;2.00;;;;;;;1.68;100.00;101834.47;4375768;32;20061;-63
2020/12/26 05:08:10;;;;;;;1.50;1.50;;;;;;;1.69;100.00;101829.06;4386673;32;20912;-64
2020/12/26 05:10:36;;;;;;;1.60;1.60;;;;;;;1.63;100.00;101810.25;4379988;32;20069;-64
2020/12/26 05:13:02;;;;;;;1.60;1.60;;;;;;;1.69;100.00;101821.16;4354723;32;20088;-65
2020/12/26 05:15:27;;;;;;;1.70;1.70;;;;;;;1.59;100.00;101806.19;4386098;32;20081;-64
2020/12/26 05:17:53;;;;;;;1.77;1.77;;;;;;;1.64;100.00;101806.66;4356909;32;20219;-64
2020/12/26 05:20:22;;;;;;;1.50;1.50;;;;;;;1.72;100.00;101825.31;4380558;32;20097;-65
2020/12/26 05:22:47;;;;;;;1.70;1.70;;;;;;;1.71;100.00;101821.03;4381921;32;20100;-64
2020/12/26 05:25:12;;;;;;;1.60;1.60;;;;;;;1.70;100.00;101827.25;4359425;32;20089;-65
2020/12/26 05:27:38;;;;;;;1.50;1.50;;;;;;;1.63;100.00;101818.16;4376858;32;20652;-66
2020/12/26 05:30:04;;;;;;;1.55;1.55;;;;;;;1.66;100.00;101823.19;4369824;32;20112;-62
2020/12/26 05:32:30;;;;;;;1.50;1.50;;;;;;;1.56;100.00;101814.34;4365504;32;20082;-64
2020/12/26 05:35:06;;;;;;;1.60;1.60;;;;;;;1.44;100.00;101806.44;4383921;32;20128;-63
2020/12/26 05:37:32;;;;;;;1.65;1.65;;;;;;;1.18;100.00;101779.50;4394934;32;20072;-65
2020/12/26 05:39:58;;;;;;;1.80;1.75;;;;;;;1.26;100.00;101813.16;4358512;32;20074;-64
2020/12/26 05:42:24;;;;;;;2.20;2.10;;;;;;;1.16;100.00;101814.84;4369969;32;20066;-64
2020/12/26 05:44:49;;;;;;;1.70;1.70;;;;;;;1.07;100.00;101817.25;4384095;32;20084;-63
2020/12/26 05:47:15;;;;;;;2.00;1.90;;;;;;;1.01;100.00;101815.06;4362973;32;20093;-63
2020/12/26 05:49:40;;;;;;;1.50;1.50;;;;;;;0.95;100.00;101815.56;4367323;32;20057;-64
2020/12/26 05:52:13;;;;;;;1.83;1.80;;;;;;;0.91;100.00;101814.09;4357010;32;20815;-64
2020/12/26 05:54:39;;;;;;;1.70;1.70;;;;;;;0.94;100.00;101813.88;4355359;32;20077;-64
2020/12/26 05:57:14;;;;;;;1.80;1.80;;;;;;;1.01;100.00;101819.50;4383414;32;20139;-64
2020/12/26 05:59:41;;;;;;;1.65;1.62;;;;;;;1.10;100.00;101814.38;4368391;32;20075;-64
2020/12/26 06:02:19;;;;;;;1.50;1.50;;;;;;;1.00;100.00;101784.44;4360650;32;20139;-64
2020/12/26 06:05:01;;;;;;;1.83;1.73;;;;;;;1.06;100.00;101799.75;4368185;32;20084;-64
2020/12/26 06:07:31;;;;;;;1.50;1.50;;;;;;;1.11;100.00;101797.59;4380355;32;20092;-64
2020/12/26 06:09:58;;;;;;;1.48;1.48;;;;;;;1.04;100.00;101777.94;4358325;32;20072;-64
2020/12/26 06:12:25;;;;;;;1.90;1.80;;;;;;;1.18;100.00;101791.84;4381259;32;20480;-65
2020/12/26 06:14:50;;;;;;;1.50;1.50;;;;;;;1.21;100.00;101800.34;4389885;32;20094;-64
2020/12/26 06:17:22;;;;;;;2.17;2.08;;;;;;;1.24;100.00;101796.63;4368639;32;20085;-65
2020/12/26 06:19:54;;;;;;;2.45;2.35;;;;;;;1.24;100.00;101786.06;4387346;32;20188;-65
2020/12/26 06:22:19;;;;;;;1.45;1.45;;;;;;;1.23;100.00;101787.88;4378668;32;20066;-64
2020/12/26 06:24:45;;;;;;;1.60;1.60;;;;;;;1.19;100.00;101785.59;4376608;32;20850;-64
2020/12/26 06:27:13;;;;;;;1.80;1.70;;;;;;;1.22;100.00;101793.28;4356823;32;20078;-64
2020/12/26 06:29:38;;;;;;;1.70;1.70;;;;;;;1.18;100.00;101787.41;4380610;32;21036;-64
2020/12/26 06:32:04;;;;;;;1.95;1.85;;;;;;;1.18;100.00;101794.47;4369646;32;20069;-64
2020/12/26 06:34:29;;;;;;;1.83;1.83;;;;;;;1.16;100.00;101802.50;4353181;32;20122;-63
2020/12/26 06:36:56;;;;;;;2.65;2.33;;;;;;;1.15;100.00;101800.00;4370602;32;20084;-62
2020/12/26 06:39:32;;;;;;;1.50;1.50;;;;;;;1.12;100.00;101807.19;4356758;32;20087;-62
2020/12/26 06:42:17;;;;;;;1.62;1.62;;;;;;;1.11;100.00;101813.41;4380658;32;20622;-64
2020/12/26 06:44:47;;;;;;;2.55;2.45;;;;;;;1.09;100.00;101825.84;4378242;32;20077;-64
2020/12/26 06:47:41;;;;;;;1.73;1.73;;;;;;;0.28;100.00;101687.28;4367488;32;20088;-64
2020/12/26 06:50:18;;;;;;;2.00;1.90;;;;;;;1.03;100.00;101813.16;4360937;32;20077;-63
2020/12/26 06:52:43;;;;;;;1.77;1.77;;;;;;;1.01;100.00;101820.34;4384077;32;20212;-64
2020/12/26 06:55:08;;;;;;;2.28;2.17;;;;;;;0.96;100.00;101819.03;4362398;32;20595;-65
2020/12/26 06:57:37;;;;;;;1.60;1.60;;;;;;;0.64;100.00;101774.91;4382466;32;20164;-65
2020/12/26 07:00:28;;;;;;;1.60;1.60;;;;;;;0.67;100.00;101801.88;4371055;32;20192;-64
2020/12/26 07:03:19;;;;;;;1.50;1.50;;;;;;;0.78;100.00;101816.84;4379949;32;20207;-64
2020/12/26 07:05:44;;;;;;;1.70;1.70;;;;;;;0.73;100.00;101821.62;4379682;32;20104;-64
2020/12/26 07:08:27;;;;;;;2.08;1.98;;;;;;;0.71;100.00;101834.91;4381408;32;20088;-64
2020/12/26 07:10:53;;;;;;;1.73;1.73;;;;;;;0.68;100.00;101832.50;4356265;32;20162;-65
2020/12/26 07:13:42;;;;;;;1.65;1.65;;;;;;;0.69;100.00;101839.44;4354270;32;20124;-64
2020/12/26 07:16:33;;;;;;;1.80;1.80;;;;;;;0.47;100.00;101807.81;4393519;32;20094;-64
2020/12/26 07:19:21;;;;;;;1.80;1.77;;;;;;;0.58;100.00;101836.78;4369385;32;20228;-64
2020/12/26 07:21:59;;;;;;;1.80;1.80;;;;;;;0.48;100.00;101838.41;4398525;32;20057;-64
2020/12/26 07:24:30;;;;;;;1.77;1.77;;;;;;;0.46;100.00;101853.50;4385191;32;20057;-63
2020/12/26 07:27:12;;;;;;;1.70;1.70;;;;;;;0.45;100.00;101851.81;4381360;32;20484;-63
2020/12/26 07:29:52;;;;;;;1.70;1.70;;;;;;;0.43;100.00;101851.06;4381219;32;20176;-64
2020/12/26 07:32:39;;;;;;;2.08;1.98;;;;;;;0.39;100.00;101854.91;4379222;32;20081;-65
2020/12/26 07:35:16;;;;;;;1.60;1.60;;;;;;;0.31;100.00;101855.44;4381197;32;20940;-63
2020/12/26 07:37:58;;;;;;;1.73;1.73;;;;;;;0.26;100.00;101858.44;4392522;32;21004;-65
2020/12/26 07:40:44;;;;;;;1.50;1.50;;;;;;;-0.53;100.00;101726.53;4365334;32;20082;-65
2020/12/26 07:43:14;;;;;;;1.80;1.80;;;;;;;0.16;100.00;101828.50;4378431;32;20424;-65
2020/12/26 07:45:40;;;;;;;1.90;1.80;;;;;;;0.18;100.00;101834.47;4366474;32;20066;-64
2020/12/26 07:48:06;;;;;;;1.70;1.70;;;;;;;0.19;100.00;101830.91;4376031;32;20068;-64
2020/12/26 07:50:33;;;;;;;1.55;1.55;;;;;;;0.25;100.00;101840.13;4379687;32;20880;-65
2020/12/26 07:53:09;;;;;;;1.65;1.65;;;;;;;0.21;100.00;101850.03;4351537;32;20654;-65
2020/12/26 07:55:35;;;;;;;1.70;1.70;;;;;;;0.20;100.00;101843.09;4380510;32;20104;-64
2020/12/26 07:58:01;;;;;;;1.65;1.65;;;;;;;0.21;100.00;101847.41;4352432;32;20889;-65
2020/12/26 08:00:27;;;;;;;1.50;1.50;;;;;;;0.20;100.00;101850.16;4364857;32;21312;-65
2020/12/26 08:02:54;;;;;;;2.50;2.40;;;;;;;0.18;100.00;101853.72;4358577;32;20074;-65
2020/12/26 08:05:30;;;;;;;1.60;1.60;;;;;;;0.20;100.00;101844.91;4353224;32;20084;-64
2020/12/26 08:07:56;;;;;;;2.10;2.00;;;;;;;0.23;100.00;101865.72;4364950;32;20952;-65
2020/12/26 08:10:21;;;;;;;1.60;1.60;;;;;;;0.24;100.00;101857.69;4377733;32;20070;-63
2020/12/26 08:12:54;;;;;;;1.52;1.52;;;;;;;0.29;100.00;101867.87;4364282;32;20092;-64
2020/12/26 08:15:27;;;;;;;2.22;2.12;;;;;;;0.31;100.00;101876.50;4371549;32;20925;-64
2020/12/26 08:18:00;;;;;;;1.70;1.70;;;;;;;0.37;100.00;101873.44;4361399;32;20833;-63
2020/12/26 08:20:28;;;;;;;2.17;2.08;;;;;;;0.37;100.00;101876.91;4345934;32;20070;-65
2020/12/26 08:22:53;;;;;;;2.33;2.22;;;;;;;-0.15;100.00;101786.03;4369566;32;20173;-64
2020/12/26 08:25:20;;;;;;;1.70;1.70;;;;;;;0.35;100.00;101855.12;4361960;32;20216;-66
2020/12/26 08:27:46;;;;;;;1.55;1.55;;;;;;;0.53;100.00;101870.50;4378770;32;20948;-66
2020/12/26 08:30:28;;;;;;;1.80;1.80;;;;;;;0.47;100.00;101848.13;4363149;32;20073;-66
2020/12/26 08:33:21;;;;;;;1.50;1.50;;;;;;;0.58;100.00;101860.47;4381050;32;20381;-67
2020/12/26 08:35:52;;;;;;;1.70;1.70;;;;;;;0.67;100.00;101857.16;4389749;32;20199;-66
2020/12/26 08:38:24;;;;;;;1.60;1.60;;;;;;;0.09;100.00;101753.62;4380721;32;20139;-67
2020/12/26 08:40:57;;;;;;;1.65;1.65;;;;;;;0.13;100.00;101755.06;4376190;32;20209;-66
2020/12/26 08:43:23;;;;;;;1.60;1.60;;;;;;;0.89;100.00;101863.44;4353371;32;20675;-65
2020/12/26 08:45:49;;;;;;;1.50;1.50;;;;;;;0.96;100.00;101858.53;4368053;32;20076;-66
2020/12/26 08:48:16;;;;;;;1.45;1.45;;;;;;;1.01;100.00;101867.75;4364317;32;20103;-68
2020/12/26 08:50:41;;;;;;;1.67;1.67;;;;;;;1.07;100.00;101877.84;4374570;32;21087;-65
2020/12/26 08:53:08;;;;;;;1.50;1.50;;;;;;;1.09;100.00;101852.22;4377939;32;20093;-65
2020/12/26 08:55:50;;;;;;;1.50;1.50;;;;;;;1.18;100.00;101855.09;4379117;32;20135;-65
2020/12/26 08:58:32;;;;;;;1.70;1.70;;;;;;;1.28;100.00;101858.69;4368151;32;20124;-65
2020/12/26 09:01:02;;;;;;;1.75;1.70;;;;;;;1.36;100.00;101853.66;4363587;32;21089;-64
2020/12/26 09:03:30;;;;;;;1.60;1.60;;;;;;;1.44;100.00;101853.06;4377708;32;20077;-67
2020/12/26 09:05:56;;;;;;;1.90;1.87;;;;;;;1.50;100.00;101852.56;4366368;32;20109;-65
2020/12/26 09:08:29;;;;;;;1.80;1.80;;;;;;;1.59;100.00;101848.38;4363827;32;20085;-64
2020/12/26 09:11:06;;;;;;;2.03;1.92;;;;;;;1.65;100.00;101843.44;4379267;32;20092;-65
2020/12/26 09:13:33;;;;;;;1.73;1.73;;;;;;;1.74;99.75;101846.31;4394174;27;20061;-64
2020/12/26 09:16:02;;;;;;;1.50;1.50;;;;;;;1.91;98.51;101853.72;4366284;32;20176;-65
2020/12/26 09:18:28;;;;;;;2.10;2.00;;;;;;;2.07;97.27;101850.69;4410673;32;20114;-65
2020/12/26 09:20:57;;;;;;;3.50;3.30;;;;;;;2.20;95.19;101850.50;4370519;32;20073;-64
2020/12/26 09:23:23;;;;;;;2.50;2.40;;;;;;;2.31;94.70;101844.34;4392974;32;20069;-65
2020/12/26 09:25:52;;;;;;;1.98;1.87;;;;;;;2.42;93.55;101850.44;4354038;32;21079;-64
2020/12/26 09:28:18;;;;;;;1.83;1.83;;;;;;;2.47;91.12;101847.41;4368141;32;20085;-65
2020/12/26 09:30:44;;;;;;;1.60;1.60;;;;;;;2.57;91.06;101847.47;4372489;32;20073;-65
2020/12/26 09:33:09;;;;;;;1.80;1.80;;;;;;;2.61;90.73;101839.16;4369037;32;20104;-65
2020/12/26 09:35:35;;;;;;;2.00;1.90;;;;;;;2.21;89.32;101784.41;4380841;32;20081;-66
2020/12/26 09:38:00;;;;;;;1.80;1.80;;;;;;;2.66;89.48;101840.56;4367991;32;20271;-65
2020/12/26 09:40:35;;;;;;;1.60;1.60;;;;;;;2.58;88.49;101823.56;4368657;32;20061;-65
2020/12/26 09:43:01;;;;;;;2.05;1.95;;;;;;;2.81;88.10;101839.28;4368705;32;20123;-66
2020/12/26 09:45:27;;;;;;;2.33;2.22;;;;;;;2.84;87.21;101838.22;4366253;32;20094;-65
2020/12/26 09:47:55;;;;;;;1.70;1.70;;;;;;;2.41;86.18;101766.06;4368705;32;20084;-65
2020/12/26 09:50:20;;;;;;;1.80;1.80;;;;;;;2.25;87.00;101706.62;4375256;32;20092;-65
2020/12/26 09:52:46;;;;;;;1.67;1.67;;;;;;;3.18;86.02;101829.06;4370146;32;20235;-66
2020/12/26 09:55:11;;;;;;;1.60;1.60;;;;;;;3.18;86.24;101815.00;4372709;32;20788;-66
2020/12/26 09:57:37;;;;;;;7.82;2.45;;;;;;;3.28;84.56;101836.22;4355550;32;20085;-66
2020/12/26 10:00:05;;;;;;;2.15;2.05;;;;;;;3.36;85.17;101837.22;4358623;32;20081;-66
2020/12/26 10:02:30;;;;;;;2.40;2.30;;;;;;;3.36;85.18;101837.22;4374736;32;20081;-70
2020/12/26 10:04:56;;;;;;;2.00;1.90;;;;;;;3.42;85.24;101838.50;4364505;32;20093;-63
2020/12/26 10:07:21;;;;;;;1.80;1.80;;;;;;;3.47;84.91;101840.75;4354459;32;20089;-65
2020/12/26 10:09:46;;;;;;;2.10;2.00;;;;;;;3.54;84.14;101834.78;4367518;32;20073;-66
2020/12/26 10:12:12;;;;;;;2.05;1.95;;;;;;;3.48;83.37;101808.84;4368166;32;20908;-64
2020/12/26 10:14:37;;;;;;;1.80;1.80;;;;;;;3.60;83.44;101814.88;4370073;32;20630;-64
2020/12/26 10:17:03;;;;;;;2.00;1.90;;;;;;;3.66;83.21;101819.63;4375066;32;20085;-67
2020/12/26 10:19:28;;;;;;;1.90;1.80;;;;;;;3.41;83.05;101775.16;4368832;32;20081;-64
2020/12/26 10:21:54;;;;;;;1.70;1.70;;;;;;;3.55;81.96;101806.50;4371862;32;20139;-65
2020/12/26 10:24:19;;;;;;;2.05;1.95;;;;;;;3.61;82.56;101810.44;4357420;32;20595;-64
2020/12/26 10:26:44;;;;;;;2.20;2.10;;;;;;;3.70;82.95;101799.03;4363067;32;20070;-64
2020/12/26 10:29:10;;;;;;;2.00;1.90;;;;;;;3.72;82.20;101832.31;4377504;32;20594;-65
2020/12/26 10:31:35;;;;;;;1.80;1.80;;;;;;;3.89;82.16;101798.22;4368510;32;20120;-64
2020/12/26 10:34:00;;;;;;;2.08;1.98;;;;;;;3.87;81.23;101790.41;4365944;32;20076;-65
2020/12/26 10:36:26;;;;;;;2.10;2.00;;;;;;;3.94;80.72;101788.06;4372330;32;20085;-65
2020/12/26 10:38:51;;;;;;;2.20;2.10;;;;;;;4.05;79.37;101772.06;4356431;32;20069;-66
2020/12/26 10:41:17;;;;;;;1.70;1.70;;;;;;;4.16;80.06;101778.16;4372912;32;20097;-66
2020/12/26 10:43:42;;;;;;;1.70;1.70;;;;;;;4.15;79.10;101766.72;4382799;32;20690;-66
2020/12/26 10:46:08;;;;;;;2.10;2.00;;;;;;;4.20;78.72;101753.09;4358384;32;20144;-65
2020/12/26 10:48:33;;;;;;;1.60;1.60;;;;;;;4.23;77.53;101774.81;4370369;32;20076;-66
2020/12/26 10:50:59;;;;;;;1.98;1.90;;;;;;;4.22;77.50;101774.97;4365413;32;20089;-64
2020/12/26 10:53:24;;;;;;;1.70;1.70;;;;;;;4.14;76.68;101767.72;4369065;32;20074;-64
2020/12/26 10:55:50;;;;;;;1.70;1.70;;;;;;;4.22;78.46;101764.38;4360596;32;20851;-65
2020/12/26 10:58:15;;;;;;;1.70;1.70;;;;;;;4.27;77.16;101770.91;4369284;32;20077;-65
2020/12/26 11:00:40;;;;;;;1.80;1.80;;;;;;;4.33;76.62;101759.75;4365065;32;20082;-64
2020/12/26 11:03:06;;;;;;;1.70;1.70;;;;;;;4.34;75.80;101784.44;4363331;32;20124;-65
2020/12/26 11:05:31;;;;;;;1.62;1.62;;;;;;;4.40;76.44;101765.34;4365623;32;20087;-64
2020/12/26 11:08:25;;;;;;;1.80;1.80;;;;;;;4.31;75.91;101767.00;4390544;32;20149;-67
2020/12/26 11:10:51;;;;;;;1.70;1.70;;;;;;;4.51;77.06;101757.22;4376826;32;20088;-66
2020/12/26 11:13:17;;;;;;;1.73;1.73;;;;;;;4.68;76.28;101758.28;4368977;32;20066;-65
2020/12/26 11:15:42;;;;;;;1.65;1.65;;;;;;;4.76;75.47;101739.03;4377402;32;21012;-66
2020/12/26 11:18:07;;;;;;;1.80;1.80;;;;;;;4.70;74.31;101731.66;4378419;32;21278;-67
2020/12/26 11:20:36;;;;;;;2.40;2.30;;;;;;;4.78;74.98;101734.41;4377062;32;20085;-66
2020/12/26 11:23:01;;;;;;;2.20;2.10;;;;;;;4.91;74.85;101727.94;4371750;32;20066;-66
2020/12/26 11:25:27;;;;;;;1.85;1.80;;;;;;;4.92;73.63;101719.84;4372909;32;20073;-66
2020/12/26 11:27:53;;;;;;;1.80;1.80;;;;;;;4.99;74.18;101717.44;4367971;32;20717;-66
2020/12/26 11:30:18;;;;;;;1.80;1.80;;;;;;;5.11;73.01;101710.97;4356646;32;20084;-67